This is the latest recevied weather packets stored in our database for station/object JE7UPL-13. If no packets are shown the sender has not sent any weather packets the latest 10 day(s).
| Time | Temp. | Humidity | Pressure | Rain* | Wind** | Luminosity | Snow |
|---|---|---|---|---|---|---|---|
| 1788430505 | 21.67° C | 95% | 1004 hPa | 0 mm | - | - | - |
| 1788428706 | 21.67° C | 95% | 1003.4 hPa | 0 mm | - | - | - |
| 1788427806 | 21.67° C | 95% | 1003.4 hPa | 0 mm | - | - | - |
| 1788426905 | 21.67° C | 95% | 1003.4 hPa | 0 mm | - | - | - |
| 1788424206 | 21.67° C | 94% | 1003.3 hPa | 0 mm | - | - | - |
| 1788423306 | 21.67° C | 94% | 1002.9 hPa | 0 mm | - | - | - |
| 1788422406 | 21.67° C | 92% | 1003.1 hPa | 0 mm | - | - | - |
| 1788421505 | 22.22° C | 91% | 1003 hPa | 0 mm | - | - | - |
| 1788420606 | 22.22° C | 90% | 1002.9 hPa | 0 mm | - | - | - |
| 1788419705 | 22.78° C | 92% | 1002.6 hPa | 0 mm | - | - | - |
| 1788418806 | 23.33° C | 91% | 1002.7 hPa | 0 mm | - | - | - |
| 1788417906 | 23.33° C | 90% | 1002.9 hPa | 0 mm | - | - | - |
| 1788417006 | 23.33° C | 89% | 1002.7 hPa | 0 mm | - | - | - |
| 1788416106 | 23.33° C | 90% | 1002.7 hPa | 0 mm | - | - | - |
| 1788415206 | 23.33° C | 89% | 1002.1 hPa | 0 mm | - | - | - |
| 1788413406 | 24.44° C | 87% | 1003.3 hPa | 0 mm | - | - | - |
| 1788412506 | 24.44° C | 85% | 1003.8 hPa | 0 mm | - | - | - |
| 1788411606 | 25° C | 85% | 1004 hPa | 0 mm | - | - | - |
| 1788410705 | 25° C | 83% | 1004.1 hPa | 0 mm | - | - | - |
| 1788409806 | 25° C | 82% | 1004 hPa | 0 mm | - | - | - |
| 1788408905 | 25.56° C | 81% | 1004.4 hPa | 0 mm | - | - | - |
| 1788408006 | 25.56° C | 81% | 1004.6 hPa | 0 mm | - | - | - |
| 1788407106 | 25° C | 82% | 1004.6 hPa | 0 mm | - | - | - |
| 1788406206 | 25° C | 82% | 1004.7 hPa | 0 mm | - | - | - |
| 1788405305 | 25° C | 84% | 1004.6 hPa | 0 mm | - | - | - |
* Rain latest hour (hover to see other rain measurements)
** Current wind speed in m/s (hover to see current wind gust speed)